F/V Mare Liberum — FVHW — position and weather

sailwx.info

Track history (hours):
 
Tides and Currents Weather Stations Pressure Air Temp Water Temp Dewpoint Dewpoint Depression Visibility Wind Speed Wind Dir Waves Ship Positions

F/V Mare Liberum

Last reported at 2014-Sep-16 09:27 UTC. Time now 2014-Sep-18 15:45 UTC.
Position N 45°37' W 001°35'.

Length 21 m.

Type: Fishing. MMSI: 227426000.

Date/timePositionNaut miles runAvg speedWind from/ knotsBaromVisibWave heightAir tempDewpointWater temp
2014-Sep-16 09:27N 45°37' W 001°35'2 2.0
2014-Sep-16 08:33N 45°39' W 001°35'1 0.3
2014-Sep-16 04:18N 45°38' W 001°36'1 1.7
2014-Sep-16 03:33N 45°39' W 001°36'1 0.5
2014-Sep-16 02:33N 45°39' W 001°37'0 0.0
2014-Sep-16 01:17N 45°39' W 001°36'0 0.0
2014-Sep-16 00:27N 45°39' W 001°36'0 0.0
2014-Sep-15 23:24N 45°39' W 001°36'0 0.0
2014-Sep-15 20:10N 45°39' W 001°36'0 0.0
2014-Sep-15 19:29N 45°39' W 001°36'0 0.0
2014-Sep-15 18:29N 45°39' W 001°36'0 0.1
2014-Sep-15 17:29N 45°39' W 001°36'4 1.1
2014-Sep-15 13:30N 45°43' W 001°37'4010.1
2014-Sep-15 09:33N 46°20' W 001°59'1010.0
2014-Sep-15 08:33N 46°29' W 002°05'12 9.8
2014-Sep-15 07:20N 46°40' W 002°12'  
Track history (hours):
 
Tides and Currents Weather Stations Pressure Air Temp Water Temp Dewpoint Dewpoint Depression Visibility Wind Speed Wind Dir Waves Ship Positions

F/V Mare Liberum

Last reported at 2014-Sep-16 09:27 UTC. Time now 2014-Sep-18 15:45 UTC.
Position N 45°37' W 001°35'.

Length 21 m.

Type: Fishing. MMSI: 227426000.

Date/timePositionNaut miles runAvg speedWind from/ knotsBaromVisibWave heightAir tempDewpointWater temp
2014-Sep-16 09:27N 45°37' W 001°35'2 2.0
2014-Sep-16 08:33N 45°39' W 001°35'1 0.3
2014-Sep-16 04:18N 45°38' W 001°36'1 1.7
2014-Sep-16 03:33N 45°39' W 001°36'1 0.5
2014-Sep-16 02:33N 45°39' W 001°37'0 0.0
2014-Sep-16 01:17N 45°39' W 001°36'0 0.0
2014-Sep-16 00:27N 45°39' W 001°36'0 0.0
2014-Sep-15 23:24N 45°39' W 001°36'0 0.0
2014-Sep-15 20:10N 45°39' W 001°36'0 0.0
2014-Sep-15 19:29N 45°39' W 001°36'0 0.0
2014-Sep-15 18:29N 45°39' W 001°36'0 0.1
2014-Sep-15 17:29N 45°39' W 001°36'4 1.1
2014-Sep-15 13:30N 45°43' W 001°37'4010.1
2014-Sep-15 09:33N 46°20' W 001°59'1010.0
2014-Sep-15 08:33N 46°29' W 002°05'12 9.8
2014-Sep-15 07:20N 46°40' W 002°12'  

Dump ship's entire track history